sensor_id;sensor_type;location;lat;lon;timestamp;temperature;humidity
7708;DHT22;3896;48.758;8.888;2024-01-15T00:00:47;-1.00;79.00
7708;DHT22;3896;48.758;8.888;2024-01-15T00:03:13;-1.00;79.00
7708;DHT22;3896;48.758;8.888;2024-01-15T00:05:39;-1.00;79.20
7708;DHT22;3896;48.758;8.888;2024-01-15T00:08:04;-1.00;79.30
7708;DHT22;3896;48.758;8.888;2024-01-15T00:10:30;-0.90;79.40
7708;DHT22;3896;48.758;8.888;2024-01-15T00:12:55;-0.90;79.40
7708;DHT22;3896;48.758;8.888;2024-01-15T00:15:21;-0.90;79.40
7708;DHT22;3896;48.758;8.888;2024-01-15T00:17:47;-0.90;79.20
7708;DHT22;3896;48.758;8.888;2024-01-15T00:20:13;-0.90;79.20
7708;DHT22;3896;48.758;8.888;2024-01-15T00:22:39;-0.90;79.30
7708;DHT22;3896;48.758;8.888;2024-01-15T00:25:05;-0.90;79.20
7708;DHT22;3896;48.758;8.888;2024-01-15T00:27:30;-0.80;79.50
7708;DHT22;3896;48.758;8.888;2024-01-15T00:29:56;-0.90;79.50
7708;DHT22;3896;48.758;8.888;2024-01-15T00:32:21;-0.80;79.60
7708;DHT22;3896;48.758;8.888;2024-01-15T00:34:47;-0.80;79.60
7708;DHT22;3896;48.758;8.888;2024-01-15T00:37:12;-0.90;79.60
7708;DHT22;3896;48.758;8.888;2024-01-15T00:39:38;-0.80;79.60
7708;DHT22;3896;48.758;8.888;2024-01-15T00:42:04;-0.80;79.60
7708;DHT22;3896;48.758;8.888;2024-01-15T00:44:30;-0.80;79.60
7708;DHT22;3896;48.758;8.888;2024-01-15T00:46:55;-0.80;79.80
7708;DHT22;3896;48.758;8.888;2024-01-15T00:49:21;-0.80;79.70
7708;DHT22;3896;48.758;8.888;2024-01-15T00:51:47;-0.80;79.60
7708;DHT22;3896;48.758;8.888;2024-01-15T00:54:12;-0.80;79.60
7708;DHT22;3896;48.758;8.888;2024-01-15T00:56:38;-0.80;79.70
7708;DHT22;3896;48.758;8.888;2024-01-15T00:59:04;-0.80;79.70
7708;DHT22;3896;48.758;8.888;2024-01-15T01:01:29;-0.80;79.80
7708;DHT22;3896;48.758;8.888;2024-01-15T01:03:55;-0.80;80.00
7708;DHT22;3896;48.758;8.888;2024-01-15T01:06:20;-0.80;80.10
7708;DHT22;3896;48.758;8.888;2024-01-15T01:08:46;-0.70;80.20
7708;DHT22;3896;48.758;8.888;2024-01-15T01:11:15;-0.70;80.60
7708;DHT22;3896;48.758;8.888;2024-01-15T01:13:41;-0.70;80.80
7708;DHT22;3896;48.758;8.888;2024-01-15T01:16:06;-0.70;81.00
7708;DHT22;3896;48.758;8.888;2024-01-15T01:18:32;-0.70;81.20
7708;DHT22;3896;48.758;8.888;2024-01-15T01:20:57;-0.70;81.50
7708;DHT22;3896;48.758;8.888;2024-01-15T01:23:23;-0.70;81.60
7708;DHT22;3896;48.758;8.888;2024-01-15T01:25:48;-0.70;81.60
7708;DHT22;3896;48.758;8.888;2024-01-15T01:28:14;-0.70;81.90
7708;DHT22;3896;48.758;8.888;2024-01-15T01:30:40;-0.60;82.00
7708;DHT22;3896;48.758;8.888;2024-01-15T01:33:05;-0.60;82.00
7708;DHT22;3896;48.758;8.888;2024-01-15T01:35:31;-0.60;81.80
7708;DHT22;3896;48.758;8.888;2024-01-15T01:37:56;-0.60;81.70
7708;DHT22;3896;48.758;8.888;2024-01-15T01:40:22;-0.60;81.60
7708;DHT22;3896;48.758;8.888;2024-01-15T01:42:48;-0.50;81.60
7708;DHT22;3896;48.758;8.888;2024-01-15T01:45:14;-0.50;81.50
7708;DHT22;3896;48.758;8.888;2024-01-15T01:47:40;-0.50;81.60
7708;DHT22;3896;48.758;8.888;2024-01-15T01:50:05;-0.50;81.70
7708;DHT22;3896;48.758;8.888;2024-01-15T01:52:32;-0.40;81.60
7708;DHT22;3896;48.758;8.888;2024-01-15T01:54:59;-0.40;81.60
7708;DHT22;3896;48.758;8.888;2024-01-15T01:57:25;-0.40;81.60
7708;DHT22;3896;48.758;8.888;2024-01-15T01:59:51;-0.40;81.70
7708;DHT22;3896;48.758;8.888;2024-01-15T02:02:17;-0.40;81.70
7708;DHT22;3896;48.758;8.888;2024-01-15T02:04:43;-0.40;81.60
7708;DHT22;3896;48.758;8.888;2024-01-15T02:07:09;-0.40;81.70
7708;DHT22;3896;48.758;8.888;2024-01-15T02:09:35;-0.40;81.60
7708;DHT22;3896;48.758;8.888;2024-01-15T02:12:01;-0.40;81.60
7708;DHT22;3896;48.758;8.888;2024-01-15T02:14:27;-0.40;81.60
7708;DHT22;3896;48.758;8.888;2024-01-15T02:16:52;-0.40;81.50
7708;DHT22;3896;48.758;8.888;2024-01-15T02:19:18;-0.40;81.50
7708;DHT22;3896;48.758;8.888;2024-01-15T02:21:44;-0.40;81.70
7708;DHT22;3896;48.758;8.888;2024-01-15T02:24:09;-0.40;82.10
7708;DHT22;3896;48.758;8.888;2024-01-15T02:26:35;-0.40;82.20
7708;DHT22;3896;48.758;8.888;2024-01-15T02:29:02;-0.50;82.20
7708;DHT22;3896;48.758;8.888;2024-01-15T02:31:28;-0.50;82.00
7708;DHT22;3896;48.758;8.888;2024-01-15T02:33:54;-0.40;82.10
7708;DHT22;3896;48.758;8.888;2024-01-15T02:36:19;-0.40;82.10
7708;DHT22;3896;48.758;8.888;2024-01-15T02:38:45;-0.40;82.80
7708;DHT22;3896;48.758;8.888;2024-01-15T02:41:10;-0.40;82.10
7708;DHT22;3896;48.758;8.888;2024-01-15T02:59:42;-0.40;82.20
7708;DHT22;3896;48.758;8.888;2024-01-15T03:02:07;-0.40;82.10
7708;DHT22;3896;48.758;8.888;2024-01-15T03:04:33;-0.40;82.10
7708;DHT22;3896;48.758;8.888;2024-01-15T03:06:58;-0.40;82.00
7708;DHT22;3896;48.758;8.888;2024-01-15T03:11:53;-0.40;82.40
7708;DHT22;3896;48.758;8.888;2024-01-15T03:14:19;-0.30;82.60
7708;DHT22;3896;48.758;8.888;2024-01-15T03:16:45;-0.30;82.70
7708;DHT22;3896;48.758;8.888;2024-01-15T03:19:11;-0.30;82.70
7708;DHT22;3896;48.758;8.888;2024-01-15T03:21:36;-0.30;82.60
7708;DHT22;3896;48.758;8.888;2024-01-15T03:24:02;-0.30;82.60
7708;DHT22;3896;48.758;8.888;2024-01-15T03:26:28;-0.30;82.60
7708;DHT22;3896;48.758;8.888;2024-01-15T03:28:53;-0.30;82.60
7708;DHT22;3896;48.758;8.888;2024-01-15T03:31:19;-0.30;82.70
7708;DHT22;3896;48.758;8.888;2024-01-15T03:33:44;-0.30;82.90
7708;DHT22;3896;48.758;8.888;2024-01-15T03:36:10;-0.20;83.30
7708;DHT22;3896;48.758;8.888;2024-01-15T03:38:40;-0.20;83.40
7708;DHT22;3896;48.758;8.888;2024-01-15T03:41:06;-0.30;83.30
7708;DHT22;3896;48.758;8.888;2024-01-15T03:43:32;-0.20;83.50
7708;DHT22;3896;48.758;8.888;2024-01-15T03:45:57;-0.20;83.40
7708;DHT22;3896;48.758;8.888;2024-01-15T03:48:23;-0.20;83.50
7708;DHT22;3896;48.758;8.888;2024-01-15T03:50:48;-0.10;83.80
7708;DHT22;3896;48.758;8.888;2024-01-15T03:53:14;-0.10;83.80
7708;DHT22;3896;48.758;8.888;2024-01-15T03:55:39;-0.10;83.80
7708;DHT22;3896;48.758;8.888;2024-01-15T03:58:05;-0.10;83.90
7708;DHT22;3896;48.758;8.888;2024-01-15T04:00:30;-0.10;84.00
7708;DHT22;3896;48.758;8.888;2024-01-15T04:02:56;-0.10;84.20
7708;DHT22;3896;48.758;8.888;2024-01-15T04:05:21;0.00;84.40
7708;DHT22;3896;48.758;8.888;2024-01-15T04:07:47;0.00;84.60
7708;DHT22;3896;48.758;8.888;2024-01-15T04:10:13;0.00;84.80
7708;DHT22;3896;48.758;8.888;2024-01-15T04:12:39;0.00;84.80
7708;DHT22;3896;48.758;8.888;2024-01-15T04:15:05;0.00;84.90
7708;DHT22;3896;48.758;8.888;2024-01-15T04:17:30;0.00;84.90
7708;DHT22;3896;48.758;8.888;2024-01-15T04:19:56;0.00;84.90
7708;DHT22;3896;48.758;8.888;2024-01-15T04:22:22;0.10;85.10
7708;DHT22;3896;48.758;8.888;2024-01-15T04:24:48;0.10;85.10
7708;DHT22;3896;48.758;8.888;2024-01-15T04:27:14;0.10;85.30
7708;DHT22;3896;48.758;8.888;2024-01-15T04:29:39;0.10;85.10
7708;DHT22;3896;48.758;8.888;2024-01-15T04:32:07;0.10;85.00
7708;DHT22;3896;48.758;8.888;2024-01-15T04:34:32;0.20;85.10
7708;DHT22;3896;48.758;8.888;2024-01-15T04:36:58;0.20;85.20
7708;DHT22;3896;48.758;8.888;2024-01-15T04:39:23;0.20;85.00
7708;DHT22;3896;48.758;8.888;2024-01-15T04:41:49;0.20;85.10
7708;DHT22;3896;48.758;8.888;2024-01-15T04:44:14;0.20;85.20
7708;DHT22;3896;48.758;8.888;2024-01-15T04:46:40;0.20;85.30
7708;DHT22;3896;48.758;8.888;2024-01-15T04:49:05;0.20;85.50
7708;DHT22;3896;48.758;8.888;2024-01-15T04:51:31;0.20;85.70
7708;DHT22;3896;48.758;8.888;2024-01-15T04:53:56;0.20;85.80
7708;DHT22;3896;48.758;8.888;2024-01-15T04:56:22;0.20;85.90
7708;DHT22;3896;48.758;8.888;2024-01-15T04:58:47;0.20;86.10
7708;DHT22;3896;48.758;8.888;2024-01-15T05:01:15;0.30;86.40
7708;DHT22;3896;48.758;8.888;2024-01-15T05:03:41;0.20;86.70
7708;DHT22;3896;48.758;8.888;2024-01-15T05:06:07;0.20;86.90
7708;DHT22;3896;48.758;8.888;2024-01-15T05:08:32;0.30;87.30
7708;DHT22;3896;48.758;8.888;2024-01-15T05:10:58;0.30;87.50
7708;DHT22;3896;48.758;8.888;2024-01-15T05:13:23;0.30;87.70
7708;DHT22;3896;48.758;8.888;2024-01-15T05:15:49;0.20;87.80
7708;DHT22;3896;48.758;8.888;2024-01-15T05:18:14;0.20;88.00
7708;DHT22;3896;48.758;8.888;2024-01-15T05:20:40;0.30;88.40
7708;DHT22;3896;48.758;8.888;2024-01-15T05:23:05;0.20;88.20
7708;DHT22;3896;48.758;8.888;2024-01-15T05:25:31;0.30;88.30
7708;DHT22;3896;48.758;8.888;2024-01-15T05:27:57;0.30;88.40
7708;DHT22;3896;48.758;8.888;2024-01-15T05:30:22;0.30;88.50
7708;DHT22;3896;48.758;8.888;2024-01-15T05:32:48;0.30;88.50
7708;DHT22;3896;48.758;8.888;2024-01-15T05:35:13;0.30;88.50
7708;DHT22;3896;48.758;8.888;2024-01-15T05:37:44;0.30;88.50
7708;DHT22;3896;48.758;8.888;2024-01-15T05:40:13;0.40;88.70
7708;DHT22;3896;48.758;8.888;2024-01-15T05:42:39;0.40;88.80
7708;DHT22;3896;48.758;8.888;2024-01-15T05:45:06;0.30;88.70
7708;DHT22;3896;48.758;8.888;2024-01-15T05:47:31;0.40;88.80
7708;DHT22;3896;48.758;8.888;2024-01-15T05:49:57;0.30;88.80
7708;DHT22;3896;48.758;8.888;2024-01-15T05:52:23;0.40;89.00
7708;DHT22;3896;48.758;8.888;2024-01-15T05:54:52;0.40;88.90
7708;DHT22;3896;48.758;8.888;2024-01-15T05:57:17;0.40;88.80
7708;DHT22;3896;48.758;8.888;2024-01-15T05:59:44;0.40;88.70
7708;DHT22;3896;48.758;8.888;2024-01-15T06:02:10;0.40;88.70
7708;DHT22;3896;48.758;8.888;2024-01-15T06:04:36;0.40;88.70
7708;DHT22;3896;48.758;8.888;2024-01-15T06:07:02;0.40;88.70
7708;DHT22;3896;48.758;8.888;2024-01-15T06:09:27;0.40;88.70
7708;DHT22;3896;48.758;8.888;2024-01-15T06:11:53;0.40;88.60
7708;DHT22;3896;48.758;8.888;2024-01-15T06:14:19;0.50;88.70
7708;DHT22;3896;48.758;8.888;2024-01-15T06:16:44;0.50;88.50
7708;DHT22;3896;48.758;8.888;2024-01-15T06:19:10;0.40;88.40
7708;DHT22;3896;48.758;8.888;2024-01-15T06:21:36;0.50;88.50
7708;DHT22;3896;48.758;8.888;2024-01-15T06:24:01;0.40;89.20
7708;DHT22;3896;48.758;8.888;2024-01-15T06:26:27;0.40;88.40
7708;DHT22;3896;48.758;8.888;2024-01-15T06:28:52;0.40;88.40
7708;DHT22;3896;48.758;8.888;2024-01-15T06:31:18;0.40;88.40
7708;DHT22;3896;48.758;8.888;2024-01-15T06:33:43;0.40;88.40
7708;DHT22;3896;48.758;8.888;2024-01-15T06:36:12;0.40;88.30
7708;DHT22;3896;48.758;8.888;2024-01-15T06:38:38;0.40;88.30
7708;DHT22;3896;48.758;8.888;2024-01-15T06:41:03;0.40;88.30
7708;DHT22;3896;48.758;8.888;2024-01-15T06:43:29;0.40;88.30
7708;DHT22;3896;48.758;8.888;2024-01-15T06:45:54;0.40;88.30
7708;DHT22;3896;48.758;8.888;2024-01-15T06:48:20;0.40;88.30
7708;DHT22;3896;48.758;8.888;2024-01-15T06:50:45;0.40;88.30
7708;DHT22;3896;48.758;8.888;2024-01-15T06:53:11;0.40;88.30
7708;DHT22;3896;48.758;8.888;2024-01-15T06:55:38;0.40;88.20
7708;DHT22;3896;48.758;8.888;2024-01-15T06:58:04;0.40;88.10
7708;DHT22;3896;48.758;8.888;2024-01-15T07:00:29;0.40;88.00
7708;DHT22;3896;48.758;8.888;2024-01-15T07:02:55;0.40;88.00
7708;DHT22;3896;48.758;8.888;2024-01-15T07:05:21;0.40;87.90
7708;DHT22;3896;48.758;8.888;2024-01-15T07:07:46;0.40;87.90
7708;DHT22;3896;48.758;8.888;2024-01-15T07:10:13;0.40;87.80
7708;DHT22;3896;48.758;8.888;2024-01-15T07:12:38;0.40;87.80
7708;DHT22;3896;48.758;8.888;2024-01-15T07:15:04;0.40;87.70
7708;DHT22;3896;48.758;8.888;2024-01-15T07:17:32;0.40;87.70
7708;DHT22;3896;48.758;8.888;2024-01-15T07:19:57;0.40;87.70
7708;DHT22;3896;48.758;8.888;2024-01-15T07:22:23;0.40;87.60
7708;DHT22;3896;48.758;8.888;2024-01-15T07:24:48;0.50;87.60
7708;DHT22;3896;48.758;8.888;2024-01-15T07:27:14;0.40;87.40
7708;DHT22;3896;48.758;8.888;2024-01-15T07:29:40;0.50;87.30
7708;DHT22;3896;48.758;8.888;2024-01-15T07:32:05;0.50;87.10
7708;DHT22;3896;48.758;8.888;2024-01-15T07:34:32;0.50;86.90
7708;DHT22;3896;48.758;8.888;2024-01-15T07:36:58;0.50;86.70
7708;DHT22;3896;48.758;8.888;2024-01-15T07:39:24;0.50;86.60
7708;DHT22;3896;48.758;8.888;2024-01-15T07:41:51;0.50;86.50
7708;DHT22;3896;48.758;8.888;2024-01-15T07:44:16;0.50;86.20
7708;DHT22;3896;48.758;8.888;2024-01-15T07:46:46;0.50;86.10
7708;DHT22;3896;48.758;8.888;2024-01-15T07:49:12;0.50;86.00
7708;DHT22;3896;48.758;8.888;2024-01-15T07:51:38;0.50;85.80
7708;DHT22;3896;48.758;8.888;2024-01-15T07:54:06;0.60;85.80
7708;DHT22;3896;48.758;8.888;2024-01-15T07:56:32;0.60;85.70
7708;DHT22;3896;48.758;8.888;2024-01-15T07:58:58;0.50;85.60
7708;DHT22;3896;48.758;8.888;2024-01-15T08:01:23;0.60;85.70
7708;DHT22;3896;48.758;8.888;2024-01-15T08:03:49;0.60;85.50
7708;DHT22;3896;48.758;8.888;2024-01-15T08:06:15;0.60;85.30
7708;DHT22;3896;48.758;8.888;2024-01-15T08:08:40;0.60;85.30
7708;DHT22;3896;48.758;8.888;2024-01-15T08:11:06;0.60;85.10
7708;DHT22;3896;48.758;8.888;2024-01-15T08:13:31;0.60;85.10
7708;DHT22;3896;48.758;8.888;2024-01-15T08:15:57;0.70;85.10
7708;DHT22;3896;48.758;8.888;2024-01-15T08:18:22;0.70;84.90
7708;DHT22;3896;48.758;8.888;2024-01-15T08:20:48;0.70;84.80
7708;DHT22;3896;48.758;8.888;2024-01-15T08:23:13;0.70;84.70
7708;DHT22;3896;48.758;8.888;2024-01-15T08:25:39;0.70;84.60
7708;DHT22;3896;48.758;8.888;2024-01-15T08:28:05;0.80;84.60
7708;DHT22;3896;48.758;8.888;2024-01-15T08:30:30;0.80;84.40
7708;DHT22;3896;48.758;8.888;2024-01-15T08:32:56;0.80;84.40
7708;DHT22;3896;48.758;8.888;2024-01-15T08:35:22;0.80;84.20
7708;DHT22;3896;48.758;8.888;2024-01-15T08:37:54;0.90;84.20
7708;DHT22;3896;48.758;8.888;2024-01-15T08:40:20;0.90;83.90
7708;DHT22;3896;48.758;8.888;2024-01-15T08:42:45;0.90;83.70
7708;DHT22;3896;48.758;8.888;2024-01-15T08:45:12;0.90;83.50
7708;DHT22;3896;48.758;8.888;2024-01-15T08:47:38;0.90;83.30
7708;DHT22;3896;48.758;8.888;2024-01-15T08:50:04;1.00;83.30
7708;DHT22;3896;48.758;8.888;2024-01-15T08:52:29;1.00;83.20
7708;DHT22;3896;48.758;8.888;2024-01-15T08:54:59;1.00;83.00
7708;DHT22;3896;48.758;8.888;2024-01-15T08:57:26;1.00;83.60
7708;DHT22;3896;48.758;8.888;2024-01-15T08:59:51;1.10;82.90
7708;DHT22;3896;48.758;8.888;2024-01-15T09:02:17;1.10;82.80
7708;DHT22;3896;48.758;8.888;2024-01-15T09:04:42;1.10;82.70
7708;DHT22;3896;48.758;8.888;2024-01-15T09:07:08;1.10;82.70
7708;DHT22;3896;48.758;8.888;2024-01-15T09:09:34;1.20;82.70
7708;DHT22;3896;48.758;8.888;2024-01-15T09:12:00;1.20;82.70
7708;DHT22;3896;48.758;8.888;2024-01-15T09:14:26;1.20;82.70
7708;DHT22;3896;48.758;8.888;2024-01-15T09:16:53;1.20;82.60
7708;DHT22;3896;48.758;8.888;2024-01-15T09:19:19;1.20;82.70
7708;DHT22;3896;48.758;8.888;2024-01-15T09:21:44;1.30;82.70
7708;DHT22;3896;48.758;8.888;2024-01-15T09:24:10;1.30;82.60
7708;DHT22;3896;48.758;8.888;2024-01-15T09:26:36;1.30;82.60
7708;DHT22;3896;48.758;8.888;2024-01-15T09:29:01;1.40;83.20
7708;DHT22;3896;48.758;8.888;2024-01-15T09:31:28;1.40;82.40
7708;DHT22;3896;48.758;8.888;2024-01-15T09:33:53;1.40;82.30
7708;DHT22;3896;48.758;8.888;2024-01-15T09:36:22;1.40;82.20
7708;DHT22;3896;48.758;8.888;2024-01-15T09:38:48;1.40;82.10
7708;DHT22;3896;48.758;8.888;2024-01-15T09:41:14;1.40;82.00
7708;DHT22;3896;48.758;8.888;2024-01-15T09:43:40;1.50;82.00
7708;DHT22;3896;48.758;8.888;2024-01-15T09:46:06;1.50;81.90
7708;DHT22;3896;48.758;8.888;2024-01-15T09:48:31;1.60;81.90
7708;DHT22;3896;48.758;8.888;2024-01-15T09:51:03;1.60;81.80
7708;DHT22;3896;48.758;8.888;2024-01-15T09:53:30;1.60;81.70
7708;DHT22;3896;48.758;8.888;2024-01-15T09:55:58;1.70;81.60
7708;DHT22;3896;48.758;8.888;2024-01-15T09:58:23;1.70;81.40
7708;DHT22;3896;48.758;8.888;2024-01-15T10:00:50;1.70;81.20
7708;DHT22;3896;48.758;8.888;2024-01-15T10:03:17;1.70;81.00
7708;DHT22;3896;48.758;8.888;2024-01-15T10:05:43;1.80;81.00
7708;DHT22;3896;48.758;8.888;2024-01-15T10:08:09;1.80;81.00
7708;DHT22;3896;48.758;8.888;2024-01-15T10:10:36;1.80;80.90
7708;DHT22;3896;48.758;8.888;2024-01-15T10:13:04;1.80;80.80
7708;DHT22;3896;48.758;8.888;2024-01-15T10:15:34;1.90;80.90
7708;DHT22;3896;48.758;8.888;2024-01-15T10:18:02;1.90;80.90
7708;DHT22;3896;48.758;8.888;2024-01-15T10:20:27;1.90;80.70
7708;DHT22;3896;48.758;8.888;2024-01-15T10:22:53;1.90;80.60
7708;DHT22;3896;48.758;8.888;2024-01-15T10:25:19;1.90;80.60
7708;DHT22;3896;48.758;8.888;2024-01-15T10:27:59;2.00;80.60
7708;DHT22;3896;48.758;8.888;2024-01-15T10:30:25;2.00;80.60
7708;DHT22;3896;48.758;8.888;2024-01-15T10:32:58;2.00;80.60
7708;DHT22;3896;48.758;8.888;2024-01-15T10:35:35;2.00;80.60
7708;DHT22;3896;48.758;8.888;2024-01-15T10:38:01;2.00;80.50
7708;DHT22;3896;48.758;8.888;2024-01-15T10:40:28;2.00;80.40
7708;DHT22;3896;48.758;8.888;2024-01-15T10:42:54;2.00;80.30
7708;DHT22;3896;48.758;8.888;2024-01-15T10:45:20;2.00;80.20
7708;DHT22;3896;48.758;8.888;2024-01-15T10:47:45;2.10;80.30
7708;DHT22;3896;48.758;8.888;2024-01-15T10:50:12;2.10;80.20
7708;DHT22;3896;48.758;8.888;2024-01-15T10:52:39;2.10;80.20
7708;DHT22;3896;48.758;8.888;2024-01-15T10:55:07;2.20;80.30
7708;DHT22;3896;48.758;8.888;2024-01-15T10:57:37;2.20;80.30
7708;DHT22;3896;48.758;8.888;2024-01-15T11:00:04;2.10;80.50
7708;DHT22;3896;48.758;8.888;2024-01-15T11:02:32;2.20;80.90
7708;DHT22;3896;48.758;8.888;2024-01-15T11:04:59;2.20;81.30
7708;DHT22;3896;48.758;8.888;2024-01-15T11:07:24;2.20;81.90
7708;DHT22;3896;48.758;8.888;2024-01-15T11:09:51;2.20;82.40
7708;DHT22;3896;48.758;8.888;2024-01-15T11:12:17;2.20;82.80
7708;DHT22;3896;48.758;8.888;2024-01-15T11:14:49;2.20;83.10
7708;DHT22;3896;48.758;8.888;2024-01-15T11:17:18;2.20;83.40
7708;DHT22;3896;48.758;8.888;2024-01-15T11:19:45;2.30;83.70
7708;DHT22;3896;48.758;8.888;2024-01-15T11:25:03;2.30;83.90
7708;DHT22;3896;48.758;8.888;2024-01-15T11:27:52;2.30;84.10
7708;DHT22;3896;48.758;8.888;2024-01-15T11:30:18;2.30;84.20
7708;DHT22;3896;48.758;8.888;2024-01-15T11:32:45;2.30;84.50
7708;DHT22;3896;48.758;8.888;2024-01-15T11:35:12;2.30;84.90
7708;DHT22;3896;48.758;8.888;2024-01-15T11:40:40;2.20;85.70
7708;DHT22;3896;48.758;8.888;2024-01-15T11:43:08;2.20;86.00
7708;DHT22;3896;48.758;8.888;2024-01-15T11:45:35;2.20;86.50
7708;DHT22;3896;48.758;8.888;2024-01-15T11:48:09;2.20;86.70
7708;DHT22;3896;48.758;8.888;2024-01-15T11:50:39;2.20;86.90
7708;DHT22;3896;48.758;8.888;2024-01-15T11:55:41;2.20;87.40
7708;DHT22;3896;48.758;8.888;2024-01-15T11:58:10;2.20;87.50
7708;DHT22;3896;48.758;8.888;2024-01-15T12:00:40;2.20;87.80
7708;DHT22;3896;48.758;8.888;2024-01-15T12:03:06;2.20;88.20
7708;DHT22;3896;48.758;8.888;2024-01-15T12:05:32;2.20;88.90
7708;DHT22;3896;48.758;8.888;2024-01-15T12:07:58;2.20;89.30
7708;DHT22;3896;48.758;8.888;2024-01-15T12:10:23;2.20;89.90
7708;DHT22;3896;48.758;8.888;2024-01-15T12:15:23;2.20;90.30
7708;DHT22;3896;48.758;8.888;2024-01-15T12:17:49;2.20;90.70
7708;DHT22;3896;48.758;8.888;2024-01-15T12:20:16;2.20;91.10
7708;DHT22;3896;48.758;8.888;2024-01-15T12:22:42;2.20;91.50
7708;DHT22;3896;48.758;8.888;2024-01-15T12:25:09;2.20;92.00
7708;DHT22;3896;48.758;8.888;2024-01-15T12:27:34;2.10;92.30
7708;DHT22;3896;48.758;8.888;2024-01-15T12:30:00;2.10;92.60
7708;DHT22;3896;48.758;8.888;2024-01-15T12:32:26;2.20;92.90
7708;DHT22;3896;48.758;8.888;2024-01-15T12:34:51;2.20;93.20
7708;DHT22;3896;48.758;8.888;2024-01-15T12:37:20;2.20;93.60
7708;DHT22;3896;48.758;8.888;2024-01-15T12:39:46;2.10;94.10
7708;DHT22;3896;48.758;8.888;2024-01-15T12:42:14;2.10;94.60
7708;DHT22;3896;48.758;8.888;2024-01-15T12:44:40;2.10;95.10
7708;DHT22;3896;48.758;8.888;2024-01-15T12:47:06;2.10;95.50
7708;DHT22;3896;48.758;8.888;2024-01-15T12:49:32;2.10;95.90
7708;DHT22;3896;48.758;8.888;2024-01-15T12:51:58;2.10;96.40
7708;DHT22;3896;48.758;8.888;2024-01-15T12:54:25;2.10;96.90
7708;DHT22;3896;48.758;8.888;2024-01-15T12:56:51;2.10;97.40
7708;DHT22;3896;48.758;8.888;2024-01-15T12:59:18;2.10;97.80
7708;DHT22;3896;48.758;8.888;2024-01-15T13:01:44;2.20;98.20
7708;DHT22;3896;48.758;8.888;2024-01-15T13:04:10;2.20;98.50
7708;DHT22;3896;48.758;8.888;2024-01-15T13:06:36;2.20;98.80
7708;DHT22;3896;48.758;8.888;2024-01-15T13:09:03;2.20;99.20
7708;DHT22;3896;48.758;8.888;2024-01-15T13:11:31;2.20;99.50
7708;DHT22;3896;48.758;8.888;2024-01-15T13:13:57;2.20;99.70
7708;DHT22;3896;48.758;8.888;2024-01-15T13:16:23;2.20;99.90
7708;DHT22;3896;48.758;8.888;2024-01-15T13:18:48;2.30;99.90
7708;DHT22;3896;48.758;8.888;2024-01-15T13:21:15;2.30;99.90
7708;DHT22;3896;48.758;8.888;2024-01-15T13:23:41;2.30;99.90
7708;DHT22;3896;48.758;8.888;2024-01-15T13:26:06;2.30;99.90
7708;DHT22;3896;48.758;8.888;2024-01-15T13:28:33;2.30;99.90
7708;DHT22;3896;48.758;8.888;2024-01-15T13:30:59;2.30;99.90
7708;DHT22;3896;48.758;8.888;2024-01-15T13:33:25;2.40;99.90
7708;DHT22;3896;48.758;8.888;2024-01-15T13:35:50;2.40;99.90
7708;DHT22;3896;48.758;8.888;2024-01-15T13:38:16;2.40;99.90
7708;DHT22;3896;48.758;8.888;2024-01-15T13:40:42;2.40;99.90
7708;DHT22;3896;48.758;8.888;2024-01-15T13:43:10;2.40;99.90
7708;DHT22;3896;48.758;8.888;2024-01-15T13:45:36;2.50;99.90
7708;DHT22;3896;48.758;8.888;2024-01-15T13:48:03;2.50;99.90
7708;DHT22;3896;48.758;8.888;2024-01-15T13:50:31;2.50;99.90
7708;DHT22;3896;48.758;8.888;2024-01-15T13:52:56;2.50;99.90
7708;DHT22;3896;48.758;8.888;2024-01-15T13:55:22;2.50;99.90
7708;DHT22;3896;48.758;8.888;2024-01-15T13:57:48;2.50;99.90
7708;DHT22;3896;48.758;8.888;2024-01-15T14:00:14;2.50;99.90
7708;DHT22;3896;48.758;8.888;2024-01-15T14:02:44;2.50;99.90
7708;DHT22;3896;48.758;8.888;2024-01-15T14:05:10;2.60;99.90
7708;DHT22;3896;48.758;8.888;2024-01-15T14:07:38;2.50;99.90
7708;DHT22;3896;48.758;8.888;2024-01-15T14:10:05;2.50;99.90
7708;DHT22;3896;48.758;8.888;2024-01-15T14:12:31;2.50;99.90
7708;DHT22;3896;48.758;8.888;2024-01-15T14:14:57;2.50;99.90
7708;DHT22;3896;48.758;8.888;2024-01-15T14:17:22;2.50;99.90
7708;DHT22;3896;48.758;8.888;2024-01-15T14:19:48;2.50;99.90
7708;DHT22;3896;48.758;8.888;2024-01-15T14:22:13;2.50;99.90
7708;DHT22;3896;48.758;8.888;2024-01-15T14:24:39;2.50;99.90
7708;DHT22;3896;48.758;8.888;2024-01-15T14:27:04;2.50;99.90
7708;DHT22;3896;48.758;8.888;2024-01-15T14:29:30;2.50;99.90
7708;DHT22;3896;48.758;8.888;2024-01-15T14:31:56;2.50;99.90
7708;DHT22;3896;48.758;8.888;2024-01-15T14:34:22;2.50;99.90
7708;DHT22;3896;48.758;8.888;2024-01-15T14:36:50;2.50;99.90
7708;DHT22;3896;48.758;8.888;2024-01-15T14:39:16;2.40;99.80
7708;DHT22;3896;48.758;8.888;2024-01-15T14:41:41;2.40;99.30
7708;DHT22;3896;48.758;8.888;2024-01-15T14:44:07;2.40;99.20
7708;DHT22;3896;48.758;8.888;2024-01-15T14:46:33;2.40;99.10
7708;DHT22;3896;48.758;8.888;2024-01-15T14:48:58;2.40;99.10
7708;DHT22;3896;48.758;8.888;2024-01-15T14:51:24;2.40;99.00
7708;DHT22;3896;48.758;8.888;2024-01-15T14:53:50;2.30;98.90
7708;DHT22;3896;48.758;8.888;2024-01-15T14:56:16;2.30;98.70
7708;DHT22;3896;48.758;8.888;2024-01-15T14:58:42;2.40;98.70
7708;DHT22;3896;48.758;8.888;2024-01-15T15:01:08;2.30;98.50
7708;DHT22;3896;48.758;8.888;2024-01-15T15:03:33;2.30;98.50
7708;DHT22;3896;48.758;8.888;2024-01-15T15:05:59;2.30;98.30
7708;DHT22;3896;48.758;8.888;2024-01-15T15:08:24;2.30;98.20
7708;DHT22;3896;48.758;8.888;2024-01-15T15:10:50;2.30;98.00
7708;DHT22;3896;48.758;8.888;2024-01-15T15:13:16;2.20;97.90
7708;DHT22;3896;48.758;8.888;2024-01-15T15:15:41;2.20;97.30
7708;DHT22;3896;48.758;8.888;2024-01-15T15:18:07;2.20;97.10
7708;DHT22;3896;48.758;8.888;2024-01-15T15:20:32;2.20;97.00
7708;DHT22;3896;48.758;8.888;2024-01-15T15:22:58;2.20;96.90
7708;DHT22;3896;48.758;8.888;2024-01-15T15:25:23;2.20;96.70
7708;DHT22;3896;48.758;8.888;2024-01-15T15:27:49;2.10;96.40
7708;DHT22;3896;48.758;8.888;2024-01-15T15:30:14;2.10;96.20
7708;DHT22;3896;48.758;8.888;2024-01-15T15:32:40;2.10;96.10
7708;DHT22;3896;48.758;8.888;2024-01-15T15:35:06;2.10;96.00
7708;DHT22;3896;48.758;8.888;2024-01-15T15:37:31;2.10;95.90
7708;DHT22;3896;48.758;8.888;2024-01-15T15:39:57;2.00;95.80
7708;DHT22;3896;48.758;8.888;2024-01-15T15:42:24;2.00;95.60
7708;DHT22;3896;48.758;8.888;2024-01-15T15:44:50;2.00;95.50
7708;DHT22;3896;48.758;8.888;2024-01-15T15:47:16;2.00;95.30
7708;DHT22;3896;48.758;8.888;2024-01-15T15:49:42;2.00;95.10
7708;DHT22;3896;48.758;8.888;2024-01-15T15:52:08;2.00;94.80
7708;DHT22;3896;48.758;8.888;2024-01-15T15:54:34;2.00;94.70
7708;DHT22;3896;48.758;8.888;2024-01-15T15:57:00;1.90;94.40
7708;DHT22;3896;48.758;8.888;2024-01-15T15:59:25;1.90;94.50
7708;DHT22;3896;48.758;8.888;2024-01-15T16:01:51;1.90;94.30
7708;DHT22;3896;48.758;8.888;2024-01-15T16:04:17;1.90;94.10
7708;DHT22;3896;48.758;8.888;2024-01-15T16:06:43;1.90;94.00
7708;DHT22;3896;48.758;8.888;2024-01-15T16:09:12;1.80;93.80
7708;DHT22;3896;48.758;8.888;2024-01-15T16:11:37;1.80;93.80
7708;DHT22;3896;48.758;8.888;2024-01-15T16:14:04;1.80;93.60
7708;DHT22;3896;48.758;8.888;2024-01-15T16:16:32;1.80;93.50
7708;DHT22;3896;48.758;8.888;2024-01-15T16:18:58;1.80;93.40
7708;DHT22;3896;48.758;8.888;2024-01-15T16:21:24;1.70;93.20
7708;DHT22;3896;48.758;8.888;2024-01-15T16:23:50;1.70;93.20
7708;DHT22;3896;48.758;8.888;2024-01-15T16:26:15;1.70;93.10
7708;DHT22;3896;48.758;8.888;2024-01-15T16:28:41;1.70;93.10
7708;DHT22;3896;48.758;8.888;2024-01-15T16:31:07;1.70;92.90
7708;DHT22;3896;48.758;8.888;2024-01-15T16:33:32;1.70;92.90
7708;DHT22;3896;48.758;8.888;2024-01-15T16:35:58;1.60;92.90